Time;durP1;ratioP1;P1;durP2;ratioP2;P2;SDS_P1;SDS_P2;PMS_P1;PMS_P2;Temp;Humidity;BMP_temperature;BMP_pressure;BME280_temperature;BME280_humidity;BME280_pressure;Samples;Min_cycle;Max_cycle;Signal;HPM_P1;HPM_P2
2022/10/11 00:00:37;;;;;;;1999.90;999.90;;;;;;;10.98;100.00;98399.75;4994720;28;20096;-77
2022/10/11 00:03:04;;;;;;;1999.90;999.90;;;;;;;10.87;100.00;98393.53;4994971;28;20400;-79
2022/10/11 00:05:30;;;;;;;1999.90;999.90;;;;;;;10.88;100.00;98397.91;4994810;28;20107;-78
2022/10/11 00:07:56;;;;;;;1999.90;999.90;;;;;;;11.07;100.00;98395.28;4994688;28;20042;-78
2022/10/11 00:10:21;;;;;;;1999.90;999.90;;;;;;;11.00;100.00;98405.72;4993035;28;20373;-78
2022/10/11 00:12:47;;;;;;;1999.90;999.90;;;;;;;10.82;100.00;98400.97;4981557;28;20066;-79
2022/10/11 00:15:15;;;;;;;1999.90;999.90;;;;;;;10.92;100.00;98403.63;4982413;28;20026;-78
2022/10/11 00:17:41;;;;;;;1999.90;999.90;;;;;;;10.92;100.00;98401.72;4976398;28;20086;-79
2022/10/11 00:20:07;;;;;;;1999.90;999.90;;;;;;;11.03;100.00;98405.97;4975615;28;20027;-78
2022/10/11 00:22:34;;;;;;;1999.90;999.90;;;;;;;11.00;100.00;98403.00;4975386;28;20026;-79
2022/10/11 00:24:59;;;;;;;1999.90;999.90;;;;;;;11.02;100.00;98403.53;4975259;28;20148;-76
2022/10/11 00:27:25;;;;;;;1999.90;999.90;;;;;;;10.91;100.00;98400.06;4975324;28;20027;-79
2022/10/11 00:29:50;;;;;;;1999.90;999.90;;;;;;;10.85;100.00;98403.13;4975599;28;20477;-78
2022/10/11 00:32:16;;;;;;;1999.90;999.90;;;;;;;10.89;100.00;98407.75;4975321;28;20034;-78
2022/10/11 00:34:41;;;;;;;1999.90;999.90;;;;;;;10.79;100.00;98398.78;4975798;28;20492;-79
2022/10/11 00:37:08;;;;;;;1999.90;999.90;;;;;;;10.73;100.00;98398.84;4975365;28;20464;-78
2022/10/11 00:39:33;;;;;;;1999.90;999.90;;;;;;;10.79;100.00;98393.31;4975444;28;20145;-79
2022/10/11 00:41:59;;;;;;;1999.90;999.90;;;;;;;10.85;100.00;98386.72;4976229;28;20115;-78
2022/10/11 00:44:27;;;;;;;1999.90;999.90;;;;;;;10.72;100.00;98383.53;4976322;28;20052;-79
2022/10/11 00:47:00;;;;;;;1999.90;999.90;;;;;;;10.61;100.00;98381.16;4974597;28;20460;-79
2022/10/11 00:49:37;;;;;;;1999.90;999.90;;;;;;;10.52;100.00;98378.22;4975408;28;20039;-78
2022/10/11 00:52:13;;;;;;;1999.90;999.90;;;;;;;10.47;100.00;98385.63;4975280;28;20027;-78
2022/10/11 00:54:40;;;;;;;1999.90;999.90;;;;;;;10.39;100.00;98383.50;4973943;28;20392;-79
2022/10/11 00:57:14;;;;;;;1999.90;999.90;;;;;;;10.29;100.00;98383.56;4974061;28;20461;-79
2022/10/11 00:59:44;;;;;;;1999.90;999.90;;;;;;;10.46;100.00;98376.59;4975732;28;20027;-78
2022/10/11 01:02:10;;;;;;;1999.90;999.90;;;;;;;10.42;100.00;98378.28;4975684;28;20050;-79
2022/10/11 01:04:38;;;;;;;1999.90;999.90;;;;;;;10.32;100.00;98378.34;4975786;28;20035;-79
2022/10/11 01:07:03;;;;;;;1999.90;999.90;;;;;;;10.29;100.00;98387.13;4974874;28;20109;-79
2022/10/11 01:09:29;;;;;;;1999.90;999.90;;;;;;;10.36;100.00;98379.41;4975201;28;20485;-78
2022/10/11 01:11:58;;;;;;;1999.90;999.90;;;;;;;10.41;100.00;98376.63;4974743;28;20034;-77
2022/10/11 01:14:29;;;;;;;1999.90;999.90;;;;;;;10.64;100.00;98375.13;4974731;28;20440;-79
2022/10/11 01:17:17;;;;;;;1999.90;999.90;;;;;;;10.79;100.00;98371.44;4974678;28;20038;-79
2022/10/11 01:19:42;;;;;;;1999.90;999.90;;;;;;;10.82;100.00;98377.16;4974886;28;20061;-79
2022/10/11 01:22:11;;;;;;;1999.90;999.90;;;;;;;10.83;100.00;98378.78;4974241;28;20062;-78
2022/10/11 01:25:13;;;;;;;1999.90;999.90;;;;;;;10.77;100.00;98372.53;4974728;28;20505;-78
2022/10/11 01:28:06;;;;;;;1999.90;999.90;;;;;;;10.89;100.00;98383.13;4974069;28;20034;-78
2022/10/11 01:30:34;;;;;;;1999.90;999.90;;;;;;;11.07;100.00;98384.31;4974200;28;20097;-78
2022/10/11 01:33:19;;;;;;;1999.90;999.90;;;;;;;11.10;100.00;98376.34;4974123;28;20412;-78
2022/10/11 01:35:59;;;;;;;1999.90;999.90;;;;;;;10.89;100.00;98372.19;4978561;28;20106;-78
2022/10/11 01:38:35;;;;;;;1999.90;999.90;;;;;;;11.19;100.00;98374.63;4978769;28;20045;-78
2022/10/11 01:41:12;;;;;;;1999.90;999.90;;;;;;;11.09;100.00;98365.69;4978353;28;20035;-79
2022/10/11 01:43:39;;;;;;;1999.90;999.90;;;;;;;11.02;100.00;98368.78;4973755;28;20484;-78
2022/10/11 01:46:06;;;;;;;1999.90;999.90;;;;;;;10.95;100.00;98364.72;4973946;28;20035;-77
2022/10/11 01:48:31;;;;;;;1999.90;999.90;;;;;;;11.02;100.00;98355.09;4974198;28;20037;-78
2022/10/11 01:51:00;;;;;;;1999.90;999.90;;;;;;;11.04;100.00;98357.53;4973811;28;20030;-77
2022/10/11 01:53:41;;;;;;;1999.90;999.90;;;;;;;11.00;100.00;98353.72;4973850;28;20041;-79
2022/10/11 01:56:21;;;;;;;1999.90;999.90;;;;;;;10.86;100.00;98347.31;4973491;28;20531;-78
2022/10/11 01:58:56;;;;;;;1999.90;999.90;;;;;;;10.89;100.00;98352.19;4973435;28;20035;-78
2022/10/11 02:01:21;;;;;;;1999.90;999.90;;;;;;;10.87;100.00;98343.47;4966973;28;20500;-79
2022/10/11 02:03:57;;;;;;;1999.90;999.90;;;;;;;10.84;100.00;98346.78;4954863;29;20035;-78
2022/10/11 02:06:36;;;;;;;1999.90;999.90;;;;;;;10.90;100.00;98346.41;4954172;28;20047;-78
2022/10/11 02:09:19;;;;;;;1999.90;999.90;;;;;;;10.92;100.00;98338.75;4954389;29;20434;-79
2022/10/11 02:11:44;;;;;;;1999.90;999.90;;;;;;;10.93;100.00;98345.06;4953370;29;20406;-79
2022/10/11 02:14:14;;;;;;;1999.90;999.90;;;;;;;11.12;100.00;98351.44;4954529;29;20023;-77
2022/10/11 02:17:02;;;;;;;1999.90;999.90;;;;;;;11.15;100.00;98345.38;4954689;28;20481;-79
2022/10/11 02:19:33;;;;;;;1999.90;999.90;;;;;;;11.16;100.00;98344.25;4963715;28;20491;-78
2022/10/11 02:22:04;;;;;;;1999.90;999.90;;;;;;;11.16;100.00;98352.47;4977435;28;20094;-77
2022/10/11 02:24:33;;;;;;;1999.90;999.90;;;;;;;11.13;100.00;98351.13;4979442;28;20439;-78
2022/10/11 02:27:01;;;;;;;1999.90;999.90;;;;;;;11.29;100.00;98357.28;4973692;28;20502;-79
2022/10/11 02:29:31;;;;;;;1999.90;999.90;;;;;;;11.22;100.00;98351.31;4973611;28;20062;-78
2022/10/11 02:31:59;;;;;;;1999.90;999.90;;;;;;;11.20;100.00;98353.53;4973723;28;20125;-79
2022/10/11 02:34:36;;;;;;;1999.90;999.90;;;;;;;11.00;100.00;98351.00;4973704;28;20026;-78
2022/10/11 02:37:08;;;;;;;1999.90;999.90;;;;;;;11.08;100.00;98348.47;4972990;28;20030;-79
2022/10/11 02:39:44;;;;;;;1999.90;999.90;;;;;;;11.11;100.00;98352.53;4970985;28;20035;-80
2022/10/11 02:42:16;;;;;;;1999.90;999.90;;;;;;;11.16;100.00;98355.22;4972429;28;20058;-79
2022/10/11 02:44:52;;;;;;;1999.90;999.90;;;;;;;11.13;100.00;98353.06;4973279;28;20031;-79
2022/10/11 02:47:17;;;;;;;1999.90;999.90;;;;;;;10.99;100.00;98354.84;4973469;28;20117;-78
2022/10/11 02:49:43;;;;;;;1999.90;999.90;;;;;;;10.94;100.00;98352.13;4973379;28;20150;-77
2022/10/11 02:52:08;;;;;;;1999.90;999.90;;;;;;;10.84;100.00;98346.78;4973641;28;20400;-79
2022/10/11 02:54:34;;;;;;;1999.90;999.90;;;;;;;10.75;100.00;98355.59;4973414;28;20050;-78
2022/10/11 02:56:59;;;;;;;1999.90;999.90;;;;;;;10.75;100.00;98361.06;4973075;28;20031;-78
2022/10/11 02:59:24;;;;;;;1999.90;999.90;;;;;;;10.81;100.00;98358.31;4972882;28;20551;-78
2022/10/11 03:01:49;;;;;;;1999.90;999.90;;;;;;;10.66;100.00;98364.69;4973141;28;20034;-78
2022/10/11 03:04:15;;;;;;;1999.90;999.90;;;;;;;10.72;100.00;98360.81;4974619;28;20034;-78
2022/10/11 03:06:40;;;;;;;1999.90;999.90;;;;;;;10.67;100.00;98369.06;4978228;28;20043;-77
2022/10/11 03:09:05;;;;;;;1999.90;999.90;;;;;;;10.82;100.00;98371.69;4979156;28;20484;-79
2022/10/11 03:11:31;;;;;;;1999.90;999.90;;;;;;;10.73;100.00;98363.28;4973054;28;20071;-78
2022/10/11 03:13:56;;;;;;;1999.90;999.90;;;;;;;10.81;100.00;98367.31;4973089;28;20027;-78
2022/10/11 03:16:21;;;;;;;1999.90;999.90;;;;;;;10.83;100.00;98369.75;4972931;28;20062;-78
2022/10/11 03:18:48;;;;;;;1999.90;999.90;;;;;;;10.75;100.00;98377.47;4972965;28;20015;-78
2022/10/11 03:21:13;;;;;;;1999.90;999.90;;;;;;;10.83;100.00;98375.25;4976750;28;20034;-79
2022/10/11 03:23:39;;;;;;;1999.90;999.90;;;;;;;10.79;100.00;98371.44;4977235;28;20031;-77
2022/10/11 03:26:05;;;;;;;1999.90;999.90;;;;;;;10.66;100.00;98379.19;4976742;28;20031;-79
2022/10/11 03:28:30;;;;;;;1999.90;999.90;;;;;;;10.66;100.00;98372.91;4976931;28;20061;-78
2022/10/11 03:30:56;;;;;;;1999.90;999.90;;;;;;;10.60;100.00;98376.78;4976890;28;20022;-79
2022/10/11 03:33:21;;;;;;;1999.90;999.90;;;;;;;10.60;100.00;98385.00;4976477;28;20042;-78
2022/10/11 03:35:47;;;;;;;1999.90;999.90;;;;;;;10.55;100.00;98388.59;4977040;28;20047;-80
2022/10/11 03:38:14;;;;;;;1999.90;999.90;;;;;;;10.51;100.00;98382.03;4976746;28;20392;-78
2022/10/11 03:40:41;;;;;;;1999.90;999.90;;;;;;;10.58;100.00;98390.75;4976087;28;20114;-78
2022/10/11 03:43:07;;;;;;;1999.90;999.90;;;;;;;10.60;100.00;98393.19;4975281;28;20029;-77
2022/10/11 03:45:32;;;;;;;1999.90;999.90;;;;;;;10.60;100.00;98393.19;4976404;28;20026;-78
2022/10/11 03:47:58;;;;;;;1999.90;999.90;;;;;;;10.75;100.00;98388.44;4976153;28;20027;-78
2022/10/11 03:50:23;;;;;;;1999.90;999.90;;;;;;;10.63;100.00;98389.88;4976391;28;20030;-78
2022/10/11 03:52:49;;;;;;;1999.90;999.90;;;;;;;10.67;100.00;98388.22;4976109;28;20117;-77
2022/10/11 03:55:16;;;;;;;1999.90;999.90;;;;;;;10.60;100.00;98387.72;4975653;28;20031;-78
2022/10/11 03:57:41;;;;;;;1999.90;999.90;;;;;;;10.69;100.00;98397.78;4975818;28;20088;-77
2022/10/11 04:00:07;;;;;;;1999.90;999.90;;;;;;;10.66;100.00;98392.06;4975848;28;20113;-78
2022/10/11 04:02:32;;;;;;;1999.90;999.90;;;;;;;10.69;100.00;98395.03;4975863;28;20027;-78
2022/10/11 04:04:57;;;;;;;1999.90;999.90;;;;;;;10.72;100.00;98399.94;4975239;28;20105;-78
2022/10/11 04:07:23;;;;;;;1999.90;999.90;;;;;;;10.74;100.00;98397.72;4975520;28;20051;-78
2022/10/11 04:09:48;;;;;;;1999.90;999.90;;;;;;;10.73;100.00;98406.22;4975179;28;20058;-78
2022/10/11 04:12:14;;;;;;;1999.90;999.90;;;;;;;10.66;100.00;98398.34;4974147;28;20104;-78
2022/10/11 04:14:39;;;;;;;1999.90;999.90;;;;;;;10.72;100.00;98407.31;4975476;28;20039;-79
2022/10/11 04:17:05;;;;;;;1999.90;999.90;;;;;;;10.70;100.00;98410.38;4974405;28;20023;-79
2022/10/11 04:19:30;;;;;;;1999.90;999.90;;;;;;;10.81;100.00;98407.56;4976761;28;20422;-78
2022/10/11 04:21:55;;;;;;;1999.90;999.90;;;;;;;10.86;100.00;98402.84;4976342;28;20027;-77
2022/10/11 04:24:21;;;;;;;1999.90;999.90;;;;;;;10.91;100.00;98407.44;4974890;28;20031;-78
2022/10/11 04:26:46;;;;;;;1999.90;999.90;;;;;;;10.85;100.00;98411.34;4975352;28;20039;-79
2022/10/11 04:29:11;;;;;;;1999.90;999.90;;;;;;;10.86;100.00;98402.84;4975446;28;20121;-79
2022/10/11 04:31:36;;;;;;;1999.90;999.90;;;;;;;10.92;100.00;98409.09;4979803;28;20118;-79
2022/10/11 04:34:02;;;;;;;1999.90;999.90;;;;;;;10.73;100.00;98389.81;4982432;28;20069;-79
2022/10/11 04:36:27;;;;;;;1999.90;999.90;;;;;;;10.80;100.00;98412.22;4975689;28;20475;-78
2022/10/11 04:38:55;;;;;;;1999.90;999.90;;;;;;;10.61;100.00;98420.28;4975471;28;20058;-79
2022/10/11 04:41:20;;;;;;;1999.90;999.90;;;;;;;10.51;100.00;98416.78;4974734;28;20035;-78
2022/10/11 04:43:46;;;;;;;1999.90;999.90;;;;;;;10.60;100.00;98417.81;4975188;28;20074;-78
2022/10/11 04:46:11;;;;;;;1999.90;999.90;;;;;;;10.47;100.00;98422.00;4975107;28;20018;-78
2022/10/11 04:48:36;;;;;;;1999.90;999.90;;;;;;;10.48;100.00;98423.63;4975270;28;20026;-78
2022/10/11 04:51:02;;;;;;;1999.90;999.90;;;;;;;10.82;100.00;98425.59;4974951;28;20031;-79
2022/10/11 04:53:28;;;;;;;1999.90;999.90;;;;;;;10.80;100.00;98425.06;4975138;28;20110;-77
2022/10/11 04:55:59;;;;;;;1999.90;999.90;;;;;;;10.83;100.00;98427.22;4973822;28;20037;-77
2022/10/11 04:58:25;;;;;;;1999.90;999.90;;;;;;;10.83;100.00;98422.59;4974024;28;20033;-78
2022/10/11 05:00:50;;;;;;;1999.90;999.90;;;;;;;10.82;100.00;98431.06;4974762;28;20458;-79
2022/10/11 05:03:15;;;;;;;1999.90;999.90;;;;;;;10.83;100.00;98432.72;4974602;28;20046;-78
2022/10/11 05:05:40;;;;;;;1999.90;999.90;;;;;;;10.71;100.00;98422.13;4974879;28;20607;-79
2022/10/11 05:08:06;;;;;;;1999.90;999.90;;;;;;;10.89;100.00;98434.31;4974303;28;20054;-77
2022/10/11 05:10:31;;;;;;;1999.90;999.90;;;;;;;10.95;100.00;98430.41;4974576;28;20084;-78
2022/10/11 05:12:56;;;;;;;1999.90;999.90;;;;;;;10.86;100.00;98432.97;4974617;28;20022;-78
2022/10/11 05:15:22;;;;;;;1999.90;999.90;;;;;;;10.75;100.00;98434.94;4974294;28;20027;-78
2022/10/11 05:17:47;;;;;;;1999.90;999.90;;;;;;;10.83;100.00;98432.72;4974331;28;20030;-79
2022/10/11 05:20:12;;;;;;;1999.90;999.90;;;;;;;10.73;100.00;98420.75;4974525;28;20034;-77
2022/10/11 05:22:37;;;;;;;1999.90;999.90;;;;;;;10.71;100.00;98424.88;4969898;28;20057;-80
2022/10/11 05:25:03;;;;;;;1999.90;999.90;;;;;;;10.65;100.00;98437.75;4980545;28;20037;-78
2022/10/11 05:27:28;;;;;;;1999.90;999.90;;;;;;;10.74;100.00;98440.72;4984071;28;20069;-78
2022/10/11 05:29:56;;;;;;;1999.90;999.90;;;;;;;10.87;100.00;98444.72;4981911;28;20031;-78
2022/10/11 05:32:21;;;;;;;1999.90;999.90;;;;;;;10.77;100.00;98451.09;4983704;28;20080;-77
2022/10/11 05:34:47;;;;;;;1999.90;999.90;;;;;;;10.70;100.00;98451.41;4984836;28;20033;-79
2022/10/11 05:37:15;;;;;;;1999.90;999.90;;;;;;;10.66;100.00;98450.31;4984424;28;20121;-80
2022/10/11 05:39:40;;;;;;;1999.90;999.90;;;;;;;10.59;100.00;98449.81;4978116;28;20027;-78
2022/10/11 05:42:06;;;;;;;1999.90;999.90;;;;;;;10.64;100.00;98451.72;4974038;28;20121;-78
2022/10/11 05:44:31;;;;;;;1999.90;999.90;;;;;;;10.70;100.00;98451.41;4985246;28;20475;-77
2022/10/11 05:46:56;;;;;;;1999.90;999.90;;;;;;;10.59;100.00;98455.28;4993890;28;20038;-76
2022/10/11 05:49:21;;;;;;;1999.90;999.90;;;;;;;10.62;100.00;98462.94;4992283;28;20026;-77
2022/10/11 05:51:47;;;;;;;1999.90;999.90;;;;;;;10.72;100.00;98462.88;4992875;28;20024;-77
2022/10/11 05:54:12;;;;;;;1999.90;999.90;;;;;;;10.85;100.00;98469.63;4992495;28;20069;-76
2022/10/11 05:56:37;;;;;;;1999.90;999.90;;;;;;;10.93;100.00;98476.44;4991489;28;20046;-77
2022/10/11 05:59:03;;;;;;;1999.90;999.90;;;;;;;11.00;100.00;98471.44;4992086;28;20042;-77
2022/10/11 06:01:29;;;;;;;1999.90;999.90;;;;;;;11.03;100.00;98482.63;4991980;28;20030;-77
2022/10/11 06:03:54;;;;;;;1999.90;999.90;;;;;;;10.93;100.00;98487.38;4992720;28;20377;-78
2022/10/11 06:06:29;;;;;;;1999.90;999.90;;;;;;;10.89;100.00;98489.84;4993376;28;20053;-77
2022/10/11 06:08:55;;;;;;;1999.90;999.90;;;;;;;11.14;100.00;98488.84;4992370;28;20049;-76
2022/10/11 06:11:24;;;;;;;1999.90;999.90;;;;;;;11.13;100.00;98473.53;4992317;28;20034;-77
2022/10/11 06:13:52;;;;;;;1999.90;999.90;;;;;;;11.33;100.00;98487.06;4991504;28;20034;-76
2022/10/11 06:16:18;;;;;;;1999.90;999.90;;;;;;;11.40;100.00;98493.03;4983544;28;20042;-78
2022/10/11 06:18:43;;;;;;;1999.90;999.90;;;;;;;11.39;100.00;98491.38;4972438;28;20027;-78
2022/10/11 06:21:09;;;;;;;1999.90;999.90;;;;;;;11.35;100.00;98489.50;4972070;28;20118;-78
2022/10/11 06:23:34;;;;;;;1999.90;999.90;;;;;;;11.33;100.00;98500.75;4971287;28;20464;-77
2022/10/11 06:26:06;;;;;;;1999.90;999.90;;;;;;;11.35;100.00;98523.19;4970854;28;20536;-77
2022/10/11 06:28:34;;;;;;;1999.90;999.90;;;;;;;11.41;100.00;98521.22;4973985;28;20035;-76
2022/10/11 06:31:01;;;;;;;1999.90;999.90;;;;;;;11.47;100.00;98520.88;4974209;28;20058;-79
2022/10/11 06:33:26;;;;;;;1999.90;999.90;;;;;;;11.52;100.00;98517.28;4976670;28;20030;-77
2022/10/11 06:36:01;;;;;;;1999.90;999.90;;;;;;;11.46;100.00;98521.19;4976564;28;20026;-78
2022/10/11 06:38:26;;;;;;;1999.90;999.90;;;;;;;11.45;100.00;98531.31;4974512;28;20117;-76
2022/10/11 06:40:52;;;;;;;1999.90;999.90;;;;;;;11.43;100.00;98528.06;4975399;28;20245;-78
2022/10/11 06:43:18;;;;;;;1999.90;999.90;;;;;;;11.41;100.00;98524.78;4981342;28;20034;-79
2022/10/11 06:45:43;;;;;;;1999.90;999.90;;;;;;;11.35;100.00;98528.66;4974385;28;20429;-77
2022/10/11 06:48:10;;;;;;;1999.90;999.90;;;;;;;11.47;100.00;98537.31;4970361;28;20480;-78
2022/10/11 06:50:38;;;;;;;1999.90;999.90;;;;;;;11.58;100.00;98536.16;4970257;28;20027;-77
2022/10/11 06:53:06;;;;;;;1999.90;999.90;;;;;;;11.61;100.00;98524.63;4972090;28;20039;-77
2022/10/11 06:55:31;;;;;;;1999.90;999.90;;;;;;;11.61;100.00;98527.34;4975851;28;20027;-78
2022/10/11 06:57:57;;;;;;;1999.90;999.90;;;;;;;11.67;100.00;98525.38;4975452;28;20511;-77
2022/10/11 07:00:22;;;;;;;1999.90;999.90;;;;;;;11.72;100.00;98533.56;4975630;28;20059;-77
2022/10/11 07:02:48;;;;;;;1999.90;999.90;;;;;;;11.82;100.00;98539.78;4975455;28;20078;-77
2022/10/11 07:05:14;;;;;;;1999.90;999.90;;;;;;;11.87;100.00;98546.34;4976234;28;20027;-77
2022/10/11 07:07:39;;;;;;;1999.90;999.90;;;;;;;11.92;100.00;98557.22;4976283;28;20109;-79
2022/10/11 07:10:05;;;;;;;1999.90;999.90;;;;;;;11.81;100.00;98554.59;4985950;28;20049;-78
2022/10/11 07:12:30;;;;;;;1999.90;999.90;;;;;;;11.94;100.00;98541.31;4997832;28;20109;-76
2022/10/11 07:14:56;;;;;;;1999.90;999.90;;;;;;;11.99;100.00;98550.31;4997820;28;20022;-76
2022/10/11 07:17:21;;;;;;;1999.90;999.90;;;;;;;12.09;100.00;98554.88;4994670;28;20471;-76
2022/10/11 07:19:46;;;;;;;1999.90;999.90;;;;;;;11.99;100.00;98560.47;4993807;28;20538;-76
2022/10/11 07:22:12;;;;;;;1999.90;999.90;;;;;;;12.10;100.00;98556.50;4994632;28;20070;-76
2022/10/11 07:24:37;;;;;;;1999.90;999.90;;;;;;;12.23;100.00;98558.56;4994570;28;20022;-76
2022/10/11 07:27:02;;;;;;;1999.90;999.90;;;;;;;12.18;100.00;98561.38;4975065;28;20084;-76
2022/10/11 07:29:28;;;;;;;1999.90;999.90;;;;;;;12.27;100.00;98565.09;4974988;28;20050;-76
2022/10/11 07:31:53;;;;;;;1999.90;999.90;;;;;;;12.25;100.00;98568.13;4974887;28;20033;-77
2022/10/11 07:34:21;;;;;;;1999.90;999.90;;;;;;;12.32;100.00;98567.78;4974855;28;20461;-77
2022/10/11 07:36:47;;;;;;;1999.90;999.90;;;;;;;12.46;100.00;98574.22;4975415;28;20063;-77
2022/10/11 07:39:12;;;;;;;1999.90;999.90;;;;;;;12.42;100.00;98575.06;4973591;28;20503;-77
2022/10/11 07:41:37;;;;;;;1999.90;999.90;;;;;;;12.54;100.00;98568.06;4974580;28;20082;-77
2022/10/11 07:44:03;;;;;;;1999.90;999.90;;;;;;;12.44;100.00;98572.84;4974746;28;20489;-76
2022/10/11 07:46:29;;;;;;;1999.90;999.90;;;;;;;12.48;100.00;98574.72;4974707;28;20030;-77
2022/10/11 07:48:55;;;;;;;1999.90;999.90;;;;;;;12.68;100.00;98580.00;4974783;28;20415;-76
2022/10/11 07:51:22;;;;;;;1999.90;999.90;;;;;;;12.30;100.00;98575.50;4974617;28;20057;-77
2022/10/11 07:53:53;;;;;;;1999.90;999.90;;;;;;;12.37;100.00;98584.19;4974631;28;20034;-76
2022/10/11 07:56:28;;;;;;;1999.90;999.90;;;;;;;12.57;100.00;98578.47;4974524;28;20027;-75
2022/10/11 07:58:56;;;;;;;;;;;;;;;12.47;100.00;98584.06;4974945;28;20050;-77
2022/10/11 08:01:22;;;;;;;1999.90;999.90;;;;;;;12.44;100.00;98587.38;4974628;28;20380;-76
2022/10/11 08:03:48;;;;;;;1999.90;999.90;;;;;;;12.48;100.00;98582.13;4974588;28;20488;-76
2022/10/11 08:06:17;;;;;;;1999.90;999.90;;;;;;;12.52;100.00;98592.25;4974017;28;20049;-77
2022/10/11 08:08:43;;;;;;;1999.90;999.90;;;;;;;12.41;100.00;98596.19;4974476;28;20031;-76
2022/10/11 08:11:08;;;;;;;1999.90;999.90;;;;;;;12.60;100.00;98588.03;4974473;28;20078;-77
2022/10/11 08:13:34;;;;;;;1999.90;999.90;;;;;;;12.72;100.00;98586.50;4974256;28;20026;-76
2022/10/11 08:15:59;;;;;;;1999.90;999.90;;;;;;;12.87;100.00;98577.28;4974286;28;20023;-77
2022/10/11 08:18:25;;;;;;;1999.90;999.90;;;;;;;13.16;100.00;98585.41;4974261;28;20054;-76
2022/10/11 08:20:50;;;;;;;1999.90;999.90;;;;;;;13.10;100.00;98589.34;4974323;28;20030;-76
2022/10/11 08:23:17;;;;;;;1999.90;999.90;;;;;;;13.37;100.00;98586.75;4974281;28;20027;-76
2022/10/11 08:25:46;;;;;;;1999.90;999.90;;;;;;;12.92;100.00;98590.94;4974121;28;20030;-76
2022/10/11 08:28:15;;;;;;;1999.90;999.90;;;;;;;13.24;100.00;98584.75;4974099;28;20551;-76
2022/10/11 08:30:49;;;;;;;1999.90;999.90;;;;;;;13.59;100.00;98592.47;4974529;28;20027;-76
2022/10/11 08:33:15;;;;;;;1999.90;999.90;;;;;;;13.65;100.00;98590.44;4973952;28;20142;-76
2022/10/11 08:35:41;;;;;;;1999.90;999.90;;;;;;;14.10;100.00;98594.34;4974431;28;20491;-77
2022/10/11 08:38:06;;;;;;;1999.90;999.90;;;;;;;13.63;100.00;98593.47;4974140;28;20073;-77
2022/10/11 08:40:31;;;;;;;1999.90;999.90;;;;;;;13.40;100.00;98591.66;4973771;28;20035;-75
2022/10/11 08:43:01;;;;;;;1999.90;999.90;;;;;;;13.91;100.00;98597.97;4974041;28;20034;-77
2022/10/11 08:45:55;;;;;;;1999.90;999.90;;;;;;;13.90;100.00;98601.84;4974089;28;20037;-75
2022/10/11 08:48:35;;;;;;;1999.90;999.90;;;;;;;14.22;100.00;98600.19;4976068;28;20027;-77
2022/10/11 08:51:12;;;;;;;1999.90;999.90;;;;;;;14.07;100.00;98601.25;4980741;28;20034;-76
2022/10/11 08:53:47;;;;;;;1999.90;999.90;;;;;;;14.21;100.00;98602.13;4974202;28;20033;-76
2022/10/11 08:56:14;;;;;;;1999.90;999.90;;;;;;;14.31;100.00;98606.63;4973722;28;20069;-76
2022/10/11 08:58:53;;;;;;;1999.90;999.90;;;;;;;14.50;100.00;98603.81;4973576;28;20030;-76
2022/10/11 09:01:25;;;;;;;1999.90;999.90;;;;;;;15.05;100.00;98599.09;4973769;28;20046;-76
2022/10/11 09:03:51;;;;;;;1999.90;999.90;;;;;;;16.60;100.00;98605.50;4974009;28;20057;-76
2022/10/11 09:06:19;;;;;;;1999.90;999.90;;;;;;;18.88;100.00;98612.88;4973813;28;20089;-77
2022/10/11 09:09:15;;;;;;;1999.90;999.90;;;;;;;21.24;88.09;98622.81;4973616;28;20034;-77
2022/10/11 09:12:00;;;;;;;1999.90;999.90;;;;;;;22.38;76.04;98611.97;4978253;28;20037;-76
2022/10/11 09:15:02;;;;;;;1999.90;999.90;;;;;;;23.45;69.77;98621.09;4958556;28;20032;-76
2022/10/11 09:17:46;;;;;;;1999.90;999.90;;;;;;;23.91;64.36;98624.91;4977009;28;20042;-76
2022/10/11 09:20:36;;;;;;;1999.90;999.90;;;;;;;23.76;63.05;98621.00;4978094;28;20494;-76
2022/10/11 09:23:04;;;;;;;1999.90;999.90;;;;;;;21.62;73.04;98614.88;4980594;28;20035;-76
2022/10/11 09:25:33;;;;;;;1999.90;999.90;;;;;;;22.46;70.26;98614.94;4982275;28;20056;-76
2022/10/11 09:28:20;;;;;;;1999.90;999.90;;;;;;;22.86;67.66;98616.47;4992494;28;20037;-77
2022/10/11 09:30:49;;;;;;;1999.90;999.90;;;;;;;23.21;63.56;98613.72;4976805;28;20033;-77
2022/10/11 09:33:25;;;;;;;1999.90;999.90;;;;;;;22.94;64.31;98611.84;4968391;28;20030;-77
2022/10/11 09:35:51;;;;;;;1999.90;999.90;;;;;;;23.34;63.18;98611.63;4978340;28;20168;-77
2022/10/11 09:38:42;;;;;;;1999.90;999.90;;;;;;;23.65;61.22;98614.38;4964890;28;20109;-77
2022/10/11 09:41:26;;;;;;;1999.90;999.90;;;;;;;23.87;60.59;98612.88;4981482;28;20065;-76
2022/10/11 09:43:51;;;;;;;1999.90;999.90;;;;;;;24.17;60.07;98608.34;4981737;28;20105;-75
2022/10/11 09:46:33;;;;;;;1999.90;999.90;;;;;;;24.85;58.30;98616.03;4980304;28;20445;-74
2022/10/11 09:49:01;;;;;;;1999.90;999.90;;;;;;;25.04;57.72;98601.97;4978328;28;20109;-75
2022/10/11 09:51:27;;;;;;;1999.90;999.90;;;;;;;25.06;56.95;98610.78;4980401;28;20034;-75
2022/10/11 09:54:01;;;;;;;1999.90;999.90;;;;;;;25.84;55.49;98615.63;4981897;28;20777;-75
2022/10/11 09:56:30;;;;;;;1999.90;999.90;;;;;;;25.21;55.32;98612.66;4980593;28;20392;-74
2022/10/11 09:59:26;;;;;;;1999.90;999.90;;;;;;;24.88;55.17;98610.50;4984403;28;20030;-74
2022/10/11 10:02:18;;;;;;;1999.90;999.90;;;;;;;24.52;56.61;98592.25;4978503;28;20076;-74
2022/10/11 10:04:52;;;;;;;1999.90;999.90;;;;;;;24.72;55.84;98604.19;4980667;28;20046;-75
2022/10/11 10:07:18;;;;;;;1999.90;999.90;;;;;;;23.77;59.13;98602.28;4967018;28;20526;-75
2022/10/11 10:09:44;;;;;;;1999.90;999.90;;;;;;;23.93;59.02;98600.22;4979800;28;20030;-75
2022/10/11 10:12:18;;;;;;;1999.90;999.90;;;;;;;25.20;55.66;98605.44;4981807;28;20029;-74
2022/10/11 10:15:05;;;;;;;1999.90;999.90;;;;;;;25.28;53.63;98607.16;4978648;28;20030;-76
2022/10/11 10:17:32;;;;;;;1999.90;999.90;;;;;;;23.52;58.76;98600.91;4977501;28;20038;-75
2022/10/11 10:19:59;;;;;;;1999.90;999.90;;;;;;;23.80;59.11;98598.75;4979491;28;20081;-76
2022/10/11 10:22:28;;;;;;;1999.90;999.90;;;;;;;23.84;58.27;98594.84;4980752;28;20022;-75
2022/10/11 10:24:56;;;;;;;1999.90;999.90;;;;;;;23.41;59.59;98598.66;4981662;28;20495;-75
2022/10/11 10:27:27;;;;;;;1999.90;999.90;;;;;;;24.37;57.14;98595.94;4980812;28;20033;-77
2022/10/11 10:30:01;;;;;;;1999.90;999.90;;;;;;;24.40;56.11;98598.00;4981394;28;20026;-75
2022/10/11 10:32:46;;;;;;;1999.90;999.90;;;;;;;24.76;55.23;98595.84;4981126;28;20400;-75
2022/10/11 10:35:17;;;;;;;;;;;;;;;23.40;59.92;98585.88;4980627;28;20045;-74
2022/10/11 10:37:51;;;;;;;1999.90;999.90;;;;;;;24.18;57.21;98583.97;4978670;28;19914;-73
2022/10/11 10:40:47;;;;;;;1999.90;999.90;;;;;;;23.91;58.38;98586.59;4979344;28;20512;-75
2022/10/11 10:43:19;;;;;;;1999.90;999.90;;;;;;;25.22;54.15;98593.84;4982181;28;20743;-75
2022/10/11 10:46:23;;;;;;;1999.90;999.90;;;;;;;25.13;53.78;98582.09;4973393;28;20489;-75
2022/10/11 10:49:00;;;;;;;1999.90;999.90;;;;;;;24.11;56.97;98576.25;4961386;28;20039;-75
2022/10/11 10:51:53;;;;;;;1999.90;999.90;;;;;;;23.21;59.82;98571.81;4968386;28;20044;-75
2022/10/11 10:54:45;;;;;;;1999.90;999.90;;;;;;;23.55;60.66;98572.25;4984004;28;20035;-75
2022/10/11 10:57:32;;;;;;;1999.90;999.90;;;;;;;24.76;56.64;98574.28;4978310;28;20597;-75
2022/10/11 11:00:03;;;;;;;1999.90;999.90;;;;;;;25.30;54.55;98587.19;4964706;28;20177;-74